createdAt,value
2018-06-30T00:01:27.964Z,3.47
2018-06-30T00:06:31.292Z,4.00
2018-06-30T00:11:34.389Z,3.97
2018-06-30T00:16:37.411Z,3.70
2018-06-30T00:21:40.708Z,3.70
2018-06-30T00:26:43.883Z,3.80
2018-06-30T00:31:46.901Z,4.70
2018-06-30T00:36:49.922Z,4.50
2018-06-30T00:41:53.139Z,4.50
2018-06-30T00:46:56.340Z,4.60
2018-06-30T00:51:59.411Z,4.27
2018-06-30T00:57:02.464Z,4.33
2018-06-30T01:02:05.958Z,4.07
2018-06-30T01:07:09.480Z,4.83
2018-06-30T01:12:12.680Z,4.20
2018-06-30T01:17:15.757Z,4.53
2018-06-30T01:22:18.881Z,5.20
2018-06-30T01:27:22.122Z,4.70
2018-06-30T01:32:25.523Z,5.67
2018-06-30T01:37:28.635Z,5.13
2018-06-30T01:42:31.654Z,5.77
2018-06-30T01:47:35.320Z,5.33
2018-06-30T01:52:38.564Z,5.10
2018-06-30T01:57:41.877Z,5.70
2018-06-30T02:02:44.953Z,5.90
2018-06-30T02:07:48.280Z,5.70
2018-06-30T02:12:51.521Z,5.20
2018-06-30T02:17:54.718Z,6.13
2018-06-30T02:22:57.676Z,4.77
2018-06-30T02:28:01.035Z,5.60
2018-06-30T02:33:04.052Z,5.60
2018-06-30T02:38:07.100Z,5.40
2018-06-30T02:43:10.077Z,6.30
2018-06-30T02:48:13.272Z,5.67
2018-06-30T02:53:16.459Z,6.03
2018-06-30T02:58:19.681Z,5.60
2018-06-30T03:03:22.722Z,6.50
2018-06-30T03:08:25.724Z,5.40
2018-06-30T03:13:28.694Z,6.10
2018-06-30T03:18:31.660Z,5.70
2018-06-30T03:23:34.659Z,6.10
2018-06-30T03:28:37.880Z,5.20
2018-06-30T03:33:41.208Z,5.70
2018-06-30T03:38:44.183Z,6.20
2018-06-30T03:43:47.152Z,6.40
2018-06-30T03:48:50.444Z,6.33
2018-06-30T03:53:54.242Z,5.60
2018-06-30T03:58:57.253Z,5.90
2018-06-30T04:04:00.412Z,5.80
2018-06-30T04:09:06.194Z,5.60
2018-06-30T04:14:09.840Z,5.97
2018-06-30T04:19:14.671Z,5.10
2018-06-30T04:24:17.657Z,6.17
2018-06-30T04:29:20.753Z,6.23
2018-06-30T04:34:23.804Z,5.50
2018-06-30T04:39:26.860Z,6.00
2018-06-30T04:44:29.848Z,5.87
2018-06-30T04:49:32.907Z,5.93
2018-06-30T04:54:35.942Z,5.83
2018-06-30T04:59:39.126Z,6.33
2018-06-30T05:04:42.151Z,6.23
2018-06-30T05:09:45.344Z,6.10
2018-06-30T05:14:48.550Z,5.47
2018-06-30T05:19:51.870Z,5.70
2018-06-30T05:24:54.968Z,6.10
2018-06-30T05:29:58.289Z,6.13
2018-06-30T05:35:01.485Z,6.10
2018-06-30T05:40:04.561Z,5.70
2018-06-30T05:45:07.599Z,6.30
2018-06-30T05:50:11.132Z,6.10
2018-06-30T05:55:14.156Z,6.13
2018-06-30T06:00:17.231Z,6.60
2018-06-30T06:05:20.224Z,5.83
2018-06-30T06:10:23.257Z,6.40
2018-06-30T06:15:26.488Z,6.83
2018-06-30T06:20:29.425Z,6.30
2018-06-30T06:25:32.413Z,6.70
2018-06-30T06:30:35.652Z,6.60
2018-06-30T06:35:38.688Z,6.80
2018-06-30T06:40:41.668Z,6.23
2018-06-30T06:45:44.819Z,6.70
2018-06-30T06:50:47.869Z,5.50
2018-06-30T06:55:51.076Z,6.80
2018-06-30T07:00:54.092Z,6.00
2018-06-30T07:05:57.264Z,6.80
2018-06-30T07:11:00.501Z,6.47
2018-06-30T07:16:03.647Z,6.00
2018-06-30T07:21:07.015Z,6.97
2018-06-30T07:26:10.223Z,6.83
2018-06-30T07:31:13.444Z,6.67
2018-06-30T07:36:16.541Z,6.17
2018-06-30T07:41:19.764Z,6.87
2018-06-30T07:46:22.875Z,7.37
2018-06-30T07:51:26.079Z,6.23
2018-06-30T07:56:29.089Z,5.83
2018-06-30T08:01:32.232Z,6.90
2018-06-30T08:06:35.609Z,5.87
2018-06-30T08:11:39.694Z,7.10
2018-06-30T08:16:42.928Z,6.60
2018-06-30T08:21:45.940Z,7.37
2018-06-30T08:26:48.968Z,6.57
2018-06-30T08:31:52.106Z,7.27
2018-06-30T08:36:55.352Z,7.00
2018-06-30T08:41:58.409Z,6.17
2018-06-30T08:47:01.412Z,6.87
2018-06-30T08:52:04.439Z,6.53
2018-06-30T08:57:07.692Z,6.87
2018-06-30T09:02:10.727Z,6.27
2018-06-30T09:07:14.113Z,6.60
2018-06-30T09:12:17.266Z,6.50
2018-06-30T09:17:20.230Z,6.57
2018-06-30T09:22:23.538Z,5.73
2018-06-30T09:27:26.608Z,5.60
2018-06-30T09:32:29.672Z,6.03
2018-06-30T09:37:32.940Z,5.90
2018-06-30T09:42:36.155Z,6.20
2018-06-30T09:47:39.477Z,6.67
2018-06-30T09:52:42.616Z,6.10
2018-06-30T09:57:45.974Z,6.90
2018-06-30T10:02:49.189Z,6.30
2018-06-30T10:07:52.380Z,6.50
2018-06-30T10:12:55.364Z,6.20
2018-06-30T10:17:58.419Z,5.60
2018-06-30T10:23:01.659Z,5.57
2018-06-30T10:28:04.969Z,6.23
2018-06-30T10:33:08.480Z,6.40
2018-06-30T10:38:11.493Z,5.80
2018-06-30T10:43:14.757Z,5.90
2018-06-30T10:48:17.635Z,5.70
2018-06-30T10:53:20.857Z,5.60
2018-06-30T10:58:24.090Z,5.90
2018-06-30T11:03:27.373Z,6.03
2018-06-30T11:08:30.441Z,5.50
2018-06-30T11:13:33.564Z,7.20
2018-06-30T11:18:36.659Z,6.10
2018-06-30T11:23:39.945Z,5.53
2018-06-30T11:28:43.930Z,6.23
2018-06-30T11:33:46.962Z,6.40
2018-06-30T11:38:50.028Z,6.17
2018-06-30T11:43:53.073Z,6.37
2018-06-30T11:48:56.028Z,5.57
2018-06-30T11:53:59.273Z,5.67
2018-06-30T11:59:02.362Z,6.03
2018-06-30T12:04:05.617Z,6.67
2018-06-30T12:09:09.912Z,5.63
2018-06-30T12:14:13.101Z,5.93
2018-06-30T12:19:16.573Z,5.50
2018-06-30T12:24:19.956Z,5.30
2018-06-30T12:29:23.026Z,5.07
2018-06-30T12:34:26.048Z,6.30
2018-06-30T12:39:29.134Z,5.37
2018-06-30T12:44:32.483Z,5.73
2018-06-30T12:49:35.791Z,6.17
2018-06-30T12:54:39.038Z,5.10
2018-06-30T12:59:41.928Z,5.50
2018-06-30T13:04:44.996Z,5.73
2018-06-30T13:09:47.994Z,6.47
2018-06-30T13:14:51.319Z,6.80
2018-06-30T13:19:54.516Z,6.33
2018-06-30T13:24:57.644Z,6.67
2018-06-30T13:30:00.645Z,6.07
2018-06-30T13:35:03.776Z,7.53
2018-06-30T13:40:07.604Z,6.83
2018-06-30T13:45:10.932Z,7.20
2018-06-30T13:50:14.187Z,6.23
2018-06-30T13:55:17.467Z,9.20
2018-06-30T14:00:20.507Z,7.10
2018-06-30T14:05:23.814Z,6.77
2018-06-30T14:10:27.040Z,7.43
2018-06-30T14:15:30.137Z,6.70
2018-06-30T14:20:34.072Z,5.87
2018-06-30T14:25:37.527Z,6.60
2018-06-30T14:30:40.588Z,6.07
2018-06-30T14:35:43.649Z,6.20
2018-06-30T14:40:46.792Z,5.87
2018-06-30T14:45:49.941Z,5.90
2018-06-30T14:50:53.017Z,5.80
2018-06-30T14:55:56.144Z,5.67
2018-06-30T15:00:59.338Z,5.90
2018-06-30T15:06:03.211Z,5.80
2018-06-30T15:11:06.469Z,5.50
2018-06-30T15:16:09.955Z,6.30
2018-06-30T15:21:13.020Z,5.60
2018-06-30T15:26:16.759Z,6.37
2018-06-30T15:31:19.991Z,5.60
2018-06-30T15:36:23.329Z,5.40
2018-06-30T15:41:26.324Z,5.47
2018-06-30T15:46:29.388Z,4.97
2018-06-30T15:51:32.724Z,5.73
2018-06-30T15:56:35.805Z,5.40
2018-06-30T16:01:38.861Z,5.20
2018-06-30T16:06:41.901Z,4.87
2018-06-30T16:11:44.952Z,5.37
2018-06-30T16:16:48.153Z,4.10
2018-06-30T16:21:51.166Z,4.00
2018-06-30T16:26:54.204Z,4.57
2018-06-30T16:31:57.204Z,3.83
2018-06-30T16:37:00.359Z,5.13
2018-06-30T16:42:03.488Z,3.93
2018-06-30T16:47:06.585Z,3.90
2018-06-30T16:52:10.457Z,3.53
2018-06-30T16:57:13.750Z,3.50
2018-06-30T17:02:16.888Z,3.60
2018-06-30T17:07:19.985Z,3.30
2018-06-30T17:12:23.126Z,2.80
2018-06-30T17:17:26.253Z,3.07
2018-06-30T17:22:29.514Z,2.30
2018-06-30T17:27:32.714Z,2.57
2018-06-30T17:32:35.793Z,2.30
2018-06-30T17:37:39.740Z,2.23
2018-06-30T17:42:42.833Z,1.60
2018-06-30T17:47:45.925Z,1.80
2018-06-30T17:52:49.034Z,1.50
2018-06-30T17:57:52.097Z,1.17
2018-06-30T18:02:55.444Z,1.40
2018-06-30T18:07:58.483Z,1.83
2018-06-30T18:13:01.946Z,1.37
2018-06-30T18:18:05.253Z,1.20
2018-06-30T18:23:08.324Z,1.20
2018-06-30T18:28:11.328Z,1.30
2018-06-30T18:33:14.467Z,1.60
2018-06-30T18:38:17.682Z,1.27
2018-06-30T18:43:20.861Z,1.17
2018-06-30T18:48:24.086Z,1.27
2018-06-30T18:53:27.104Z,1.20
2018-06-30T18:58:30.300Z,1.00
2018-06-30T19:03:33.560Z,0.90
2018-06-30T19:08:36.734Z,1.00
2018-06-30T19:13:39.766Z,0.93
2018-06-30T19:18:43.073Z,0.90
2018-06-30T19:23:46.202Z,0.93
2018-06-30T19:28:49.221Z,1.53
2018-06-30T19:33:52.241Z,0.90
2018-06-30T19:38:55.428Z,1.13
2018-06-30T19:43:58.675Z,1.60
2018-06-30T19:49:01.745Z,1.00
2018-06-30T19:54:05.003Z,1.40
2018-06-30T19:59:08.325Z,1.47
2018-06-30T20:04:11.827Z,1.33
2018-06-30T20:09:14.860Z,1.70
2018-06-30T20:14:17.904Z,1.40
2018-06-30T20:19:21.159Z,1.30
2018-06-30T20:24:24.181Z,1.50
2018-06-30T20:29:27.456Z,1.90
2018-06-30T20:34:30.502Z,1.60
2018-06-30T20:39:33.564Z,1.23
2018-06-30T20:44:36.664Z,1.40
2018-06-30T20:49:39.947Z,1.77
2018-06-30T20:54:43.027Z,1.30
2018-06-30T20:59:46.307Z,1.30
2018-06-30T21:04:49.616Z,1.30
2018-06-30T21:09:52.842Z,0.90
2018-06-30T21:14:56.541Z,1.30
2018-06-30T21:19:59.862Z,1.30
2018-06-30T21:25:04.273Z,1.67
2018-06-30T21:30:07.361Z,1.50
2018-06-30T21:35:10.749Z,1.50
2018-06-30T21:40:14.431Z,1.70
2018-06-30T21:45:17.753Z,1.23
2018-06-30T21:50:20.819Z,1.30
2018-06-30T21:55:24.049Z,1.37
2018-06-30T22:00:53.362Z,1.27
2018-06-30T22:05:57.660Z,1.73
2018-06-30T22:11:01.084Z,1.40
2018-06-30T22:16:04.153Z,1.30
2018-06-30T22:21:08.036Z,1.63
2018-06-30T22:26:11.127Z,1.50
2018-06-30T22:31:14.377Z,1.20
2018-06-30T22:36:17.453Z,1.50
2018-06-30T22:41:20.467Z,1.13
2018-06-30T22:46:23.676Z,1.70
2018-06-30T22:51:27.191Z,1.37
2018-06-30T22:56:30.191Z,1.20
2018-06-30T23:01:33.374Z,1.40
2018-06-30T23:06:36.714Z,1.30
2018-06-30T23:11:39.747Z,1.90
2018-06-30T23:16:42.775Z,1.50
2018-06-30T23:21:45.818Z,1.40
2018-06-30T23:26:48.970Z,1.40
2018-06-30T23:31:52.317Z,1.30
2018-06-30T23:36:55.434Z,1.43
2018-06-30T23:41:58.482Z,1.30
2018-06-30T23:47:01.699Z,1.40
2018-06-30T23:52:05.082Z,1.50
2018-06-30T23:57:08.156Z,1.53
